createdAt,value
2019-04-27T00:00:14.180Z,12.13
2019-04-27T00:02:44.097Z,12.15
2019-04-27T00:05:32.515Z,12.14
2019-04-27T00:08:17.123Z,12.13
2019-04-27T00:11:05.109Z,12.11
2019-04-27T00:13:36.277Z,12.10
2019-04-27T00:16:09.705Z,12.10
2019-04-27T00:18:56.451Z,12.07
2019-04-27T00:21:40.073Z,12.05
2019-04-27T00:24:08.594Z,12.01
2019-04-27T00:26:36.839Z,11.97
2019-04-27T00:29:05.417Z,11.96
2019-04-27T00:31:33.840Z,11.94
2019-04-27T00:34:03.605Z,11.89
2019-04-27T00:36:40.119Z,11.87
2019-04-27T00:39:13.846Z,11.85
2019-04-27T00:41:43.042Z,11.85
2019-04-27T00:44:11.254Z,11.84
2019-04-27T00:46:39.472Z,11.82
2019-04-27T00:49:07.733Z,11.81
2019-04-27T00:51:35.942Z,11.80
2019-04-27T00:54:04.683Z,11.79
2019-04-27T00:56:50.998Z,11.78
2019-04-27T00:59:23.910Z,11.76
2019-04-27T01:01:56.223Z,11.74
2019-04-27T01:04:29.469Z,11.73
2019-04-27T01:06:57.693Z,11.70
2019-04-27T01:09:26.030Z,11.66
2019-04-27T01:11:54.290Z,11.60
2019-04-27T01:14:23.161Z,11.52
2019-04-27T01:16:51.487Z,11.47
2019-04-27T01:19:19.882Z,11.38
2019-04-27T01:21:49.665Z,11.32
2019-04-27T01:24:18.893Z,11.27
2019-04-27T01:26:49.921Z,11.22
2019-04-27T01:29:22.976Z,11.15
2019-04-27T01:31:51.275Z,11.09
2019-04-27T01:34:19.507Z,11.05
2019-04-27T01:36:49.282Z,11.04
2019-04-27T01:39:18.877Z,11.01
2019-04-27T01:41:48.998Z,10.97
2019-04-27T01:44:19.261Z,10.94
2019-04-27T01:46:48.701Z,10.92
2019-04-27T01:49:17.195Z,10.89
2019-04-27T01:51:45.417Z,10.89
2019-04-27T01:54:15.283Z,10.88
2019-04-27T01:56:43.764Z,10.87
2019-04-27T01:59:12.634Z,10.89
2019-04-27T02:01:59.437Z,10.90
2019-04-27T02:04:32.271Z,10.92
2019-04-27T02:07:02.448Z,10.95
2019-04-27T02:09:30.746Z,10.99
2019-04-27T02:11:59.345Z,11.02
2019-04-27T02:14:28.770Z,11.07
2019-04-27T02:16:57.103Z,11.09
2019-04-27T02:19:25.359Z,11.12
2019-04-27T02:21:53.579Z,11.15
2019-04-27T02:24:21.805Z,11.16
2019-04-27T02:26:50.303Z,11.18
2019-04-27T02:29:26.257Z,11.18
2019-04-27T02:31:56.111Z,11.19
2019-04-27T02:34:41.880Z,11.21
2019-04-27T02:37:10.451Z,11.21
2019-04-27T02:39:39.905Z,11.21
2019-04-27T02:42:10.112Z,11.22
2019-04-27T02:44:40.676Z,11.25
2019-04-27T02:47:10.303Z,11.27
2019-04-27T02:49:40.560Z,11.29
2019-04-27T02:52:10.670Z,11.30
2019-04-27T02:54:40.038Z,11.30
2019-04-27T02:57:10.142Z,11.32
2019-04-27T02:59:39.926Z,11.31
2019-04-27T03:02:19.708Z,11.30
2019-04-27T03:04:49.862Z,11.29
2019-04-27T03:07:20.076Z,11.26
2019-04-27T03:09:50.626Z,11.25
2019-04-27T03:12:20.117Z,11.22
2019-04-27T03:14:50.704Z,11.20
2019-04-27T03:17:22.828Z,11.19
2019-04-27T03:20:01.117Z,11.17
2019-04-27T03:22:42.839Z,11.16
2019-04-27T03:25:15.367Z,11.14
2019-04-27T03:27:45.292Z,11.14
2019-04-27T03:30:15.211Z,11.12
2019-04-27T03:32:43.794Z,11.09
2019-04-27T03:35:13.326Z,11.07
2019-04-27T03:37:41.891Z,11.05
2019-04-27T03:40:10.487Z,11.03
2019-04-27T03:42:40.508Z,11.03
2019-04-27T03:45:10.854Z,10.99
2019-04-27T03:47:40.731Z,10.97
2019-04-27T03:50:10.789Z,10.95
2019-04-27T03:52:56.819Z,10.93
2019-04-27T03:55:43.037Z,10.92
2019-04-27T03:58:21.869Z,10.91
2019-04-27T04:00:52.190Z,10.91
2019-04-27T04:03:20.656Z,10.91
2019-04-27T04:05:49.476Z,10.90
2019-04-27T04:08:19.372Z,10.91
2019-04-27T04:10:49.575Z,10.89
2019-04-27T04:13:20.461Z,10.89
2019-04-27T04:15:54.429Z,10.90
2019-04-27T04:18:23.809Z,10.89
2019-04-27T04:20:52.117Z,10.89
2019-04-27T04:23:20.733Z,10.92
2019-04-27T04:25:49.911Z,10.95
2019-04-27T04:28:19.986Z,11.00
2019-04-27T04:30:50.118Z,11.04
2019-04-27T04:33:20.577Z,11.08
2019-04-27T04:35:49.710Z,11.13
2019-04-27T04:38:20.556Z,11.20
2019-04-27T04:40:50.421Z,11.25
2019-04-27T04:43:20.472Z,11.31
2019-04-27T04:46:09.804Z,11.33
2019-04-27T04:48:35.855Z,11.37
2019-04-27T04:51:04.066Z,11.37
2019-04-27T04:53:32.298Z,11.34
2019-04-27T04:56:00.540Z,11.30
2019-04-27T04:58:29.441Z,11.22
2019-04-27T05:00:59.600Z,11.16
2019-04-27T05:03:28.672Z,11.09
2019-04-27T05:05:58.680Z,11.07
2019-04-27T05:08:27.094Z,11.11
2019-04-27T05:10:55.319Z,11.20
2019-04-27T05:13:23.545Z,11.44
2019-04-27T05:15:51.826Z,11.92
2019-04-27T05:18:20.353Z,12.62
2019-04-27T05:20:50.466Z,13.67
2019-04-27T05:23:18.797Z,14.66
2019-04-27T05:25:47.105Z,15.38
2019-04-27T05:28:15.369Z,15.96
2019-04-27T05:30:43.595Z,16.35
2019-04-27T05:33:11.842Z,16.47
2019-04-27T05:35:41.125Z,16.50
2019-04-27T05:38:12.922Z,16.14
2019-04-27T05:40:40.334Z,15.83
2019-04-27T05:43:09.332Z,15.69
2019-04-27T05:46:21.794Z,15.66
2019-04-27T05:48:50.341Z,15.85
2019-04-27T05:51:19.754Z,16.42
2019-04-27T05:53:49.537Z,16.58
2019-04-27T05:56:19.284Z,16.76
2019-04-27T05:58:49.067Z,16.60
2019-04-27T06:01:19.570Z,16.38
2019-04-27T06:03:49.684Z,16.51
2019-04-27T06:06:19.607Z,16.60
2019-04-27T06:08:49.509Z,16.56
2019-04-27T06:11:19.527Z,16.68
2019-04-27T06:13:49.216Z,16.68
2019-04-27T06:16:19.343Z,16.56
2019-04-27T06:18:49.337Z,16.41
2019-04-27T06:21:19.436Z,15.99
2019-04-27T06:23:48.774Z,16.19
2019-04-27T06:26:17.347Z,16.18
2019-04-27T06:28:45.575Z,16.28
2019-04-27T06:31:13.791Z,16.35
2019-04-27T06:33:42.109Z,16.50
2019-04-27T06:36:10.336Z,16.66
2019-04-27T06:38:39.378Z,16.78
2019-04-27T06:41:09.889Z,16.82
2019-04-27T06:43:37.747Z,16.88
2019-04-27T06:46:05.986Z,16.93
2019-04-27T06:48:34.229Z,16.98
2019-04-27T06:51:03.558Z,17.07
2019-04-27T06:53:32.678Z,17.23
2019-04-27T06:56:00.917Z,17.39
2019-04-27T06:58:29.341Z,17.50
2019-04-27T07:00:59.358Z,17.56
2019-04-27T07:03:28.937Z,17.58
2019-04-27T07:05:58.814Z,17.54
2019-04-27T07:08:28.650Z,17.60
2019-04-27T07:10:58.847Z,17.63
2019-04-27T07:13:28.998Z,17.85
2019-04-27T07:15:57.409Z,17.83
2019-04-27T07:18:25.647Z,17.84
2019-04-27T07:20:53.859Z,17.42
2019-04-27T07:23:22.420Z,17.96
2019-04-27T07:25:50.747Z,17.89
2019-04-27T07:28:19.103Z,17.88
2019-04-27T07:30:48.770Z,17.78
2019-04-27T07:33:18.625Z,17.64
2019-04-27T07:35:46.878Z,17.50
2019-04-27T07:38:15.171Z,17.46
2019-04-27T07:40:43.397Z,17.51
2019-04-27T07:43:15.776Z,17.66
2019-04-27T07:45:44.014Z,17.81
2019-04-27T07:48:12.239Z,17.82
2019-04-27T07:50:40.459Z,17.86
2019-04-27T07:53:09.038Z,17.84
2019-04-27T07:55:37.320Z,17.96
2019-04-27T07:58:05.539Z,18.11
2019-04-27T08:00:33.767Z,18.21
2019-04-27T08:03:02.012Z,18.31
2019-04-27T08:05:30.709Z,18.39
2019-04-27T08:08:00.172Z,18.35
2019-04-27T08:10:29.206Z,18.28
2019-04-27T08:12:59.571Z,18.27
2019-04-27T08:15:29.050Z,18.32
2019-04-27T08:17:59.222Z,18.40
2019-04-27T08:20:29.248Z,18.50
2019-04-27T08:23:01.095Z,18.48
2019-04-27T08:25:28.695Z,18.53
2019-04-27T08:28:00.274Z,18.52
2019-04-27T08:30:48.965Z,18.63
2019-04-27T08:33:19.073Z,18.72
2019-04-27T08:35:48.963Z,18.73
2019-04-27T08:38:18.991Z,18.75
2019-04-27T08:40:49.368Z,18.77
2019-04-27T08:43:19.114Z,18.81
2019-04-27T08:45:48.795Z,18.86
2019-04-27T08:48:25.140Z,18.99
2019-04-27T08:50:48.627Z,19.10
2019-04-27T08:53:18.515Z,19.18
2019-04-27T08:55:46.835Z,19.16
2019-04-27T08:58:15.046Z,19.15
2019-04-27T09:00:43.282Z,19.21
2019-04-27T09:03:11.747Z,19.33
2019-04-27T09:05:39.958Z,19.46
2019-04-27T09:08:19.161Z,19.47
2019-04-27T09:10:52.085Z,19.46
2019-04-27T09:13:25.237Z,19.47
2019-04-27T09:16:04.314Z,19.52
2019-04-27T09:18:33.743Z,19.08
2019-04-27T09:21:03.657Z,19.64
2019-04-27T09:23:31.903Z,19.69
2019-04-27T09:26:00.193Z,19.79
2019-04-27T09:28:29.453Z,19.90
2019-04-27T09:30:58.628Z,19.95
2019-04-27T09:33:27.202Z,20.03
2019-04-27T09:35:56.731Z,20.14
2019-04-27T09:38:26.445Z,20.12
2019-04-27T09:40:57.743Z,20.12
2019-04-27T09:43:26.458Z,20.13
2019-04-27T09:45:55.750Z,20.04
2019-04-27T09:48:25.959Z,20.00
2019-04-27T09:50:55.937Z,20.04
2019-04-27T09:53:24.445Z,19.96
2019-04-27T09:55:52.679Z,20.01
2019-04-27T09:58:21.243Z,20.04
2019-04-27T10:00:49.554Z,20.16
2019-04-27T10:03:17.784Z,20.21
2019-04-27T10:05:46.058Z,20.07
2019-04-27T10:08:14.546Z,19.85
2019-04-27T10:10:42.749Z,19.95
2019-04-27T10:13:11.490Z,20.24
2019-04-27T10:15:39.701Z,19.48
2019-04-27T10:18:08.004Z,20.80
2019-04-27T10:20:40.509Z,21.09
2019-04-27T10:23:06.494Z,21.31
2019-04-27T10:25:35.519Z,21.43
2019-04-27T10:28:06.755Z,21.59
2019-04-27T10:30:35.842Z,21.75
2019-04-27T10:33:07.724Z,21.85
2019-04-27T10:35:36.177Z,21.63
2019-04-27T10:38:04.400Z,21.53
2019-04-27T10:40:32.897Z,21.29
2019-04-27T10:43:01.100Z,21.05
2019-04-27T10:45:30.166Z,20.90
2019-04-27T10:47:58.371Z,21.03
2019-04-27T10:50:26.734Z,21.20
2019-04-27T10:52:56.801Z,21.05
2019-04-27T10:55:26.193Z,20.86
2019-04-27T10:57:54.845Z,20.80
2019-04-27T11:00:25.671Z,20.98
2019-04-27T11:02:54.003Z,21.18
2019-04-27T11:05:36.147Z,21.37
2019-04-27T11:08:04.451Z,21.30
2019-04-27T11:10:33.072Z,21.16
2019-04-27T11:13:01.280Z,20.96
2019-04-27T11:15:29.568Z,20.74
2019-04-27T11:17:57.803Z,20.44
2019-04-27T11:20:27.845Z,20.42
2019-04-27T11:23:06.615Z,20.35
2019-04-27T11:25:26.423Z,20.19
2019-04-27T11:27:57.538Z,20.09
2019-04-27T11:30:25.265Z,20.15
2019-04-27T11:32:56.680Z,20.34
2019-04-27T11:35:25.803Z,20.49
2019-04-27T11:37:56.129Z,20.46
2019-04-27T11:40:24.371Z,20.45
2019-04-27T11:42:52.576Z,20.51
2019-04-27T11:45:22.455Z,20.75
2019-04-27T11:47:50.677Z,21.10
2019-04-27T11:50:19.584Z,21.34
2019-04-27T11:52:47.836Z,21.45
2019-04-27T11:55:16.263Z,21.63
2019-04-27T11:57:44.544Z,21.82
2019-04-27T12:00:16.500Z,21.99
2019-04-27T12:02:45.727Z,22.26
2019-04-27T12:05:15.987Z,22.44
2019-04-27T12:07:47.499Z,22.51
2019-04-27T12:10:15.734Z,22.55
2019-04-27T12:12:46.189Z,22.64
2019-04-27T12:15:16.048Z,22.72
2019-04-27T12:17:46.071Z,22.72
2019-04-27T12:20:15.948Z,22.71
2019-04-27T12:22:44.518Z,22.60
2019-04-27T12:25:12.739Z,22.56
2019-04-27T12:27:42.584Z,22.41
2019-04-27T12:30:16.234Z,22.39
2019-04-27T12:32:45.772Z,22.38
2019-04-27T12:35:14.113Z,22.47
2019-04-27T12:37:42.317Z,22.50
2019-04-27T12:40:10.530Z,22.56
2019-04-27T12:42:39.010Z,22.65
2019-04-27T12:45:08.433Z,22.73
2019-04-27T12:47:36.656Z,22.74
2019-04-27T12:50:11.749Z,22.70
2019-04-27T12:52:41.067Z,22.57
2019-04-27T12:55:11.182Z,22.59
2019-04-27T12:57:46.853Z,22.65
2019-04-27T13:00:32.155Z,22.77
2019-04-27T13:03:00.363Z,22.86
2019-04-27T13:05:28.585Z,23.00
2019-04-27T13:07:56.777Z,23.17
2019-04-27T13:10:25.423Z,23.30
2019-04-27T13:12:53.665Z,23.34
2019-04-27T13:15:21.877Z,23.33
2019-04-27T13:17:50.120Z,23.09
2019-04-27T13:20:18.844Z,22.80
2019-04-27T13:22:47.406Z,22.52
2019-04-27T13:25:15.642Z,22.28
2019-04-27T13:27:43.873Z,21.97
2019-04-27T13:30:12.549Z,21.11
2019-04-27T13:32:40.782Z,20.29
2019-04-27T13:35:09.107Z,19.60
2019-04-27T13:37:39.326Z,18.86
2019-04-27T13:40:09.627Z,18.42
2019-04-27T13:42:45.601Z,17.81
2019-04-27T13:45:18.387Z,17.30
2019-04-27T13:48:13.448Z,16.93
2019-04-27T13:50:56.479Z,16.64
2019-04-27T13:53:26.237Z,16.45
2019-04-27T13:55:56.621Z,16.23
2019-04-27T13:58:24.477Z,16.03
2019-04-27T14:00:52.737Z,15.81
2019-04-27T14:03:21.171Z,15.75
2019-04-27T14:05:49.563Z,15.65
2019-04-27T14:08:18.022Z,15.58
2019-04-27T14:10:46.234Z,15.54
2019-04-27T14:13:17.373Z,15.55
2019-04-27T14:15:44.695Z,15.56
2019-04-27T14:18:12.937Z,15.53
2019-04-27T14:20:41.470Z,15.55
2019-04-27T14:23:14.238Z,15.64
2019-04-27T14:25:42.844Z,15.75
2019-04-27T14:28:11.415Z,15.90
2019-04-27T14:30:40.050Z,16.02
2019-04-27T14:33:09.031Z,16.11
2019-04-27T14:35:37.569Z,16.10
2019-04-27T14:38:05.791Z,16.06
2019-04-27T14:40:34.005Z,16.03
2019-04-27T14:43:02.227Z,15.95
2019-04-27T14:45:30.467Z,15.89
2019-04-27T14:47:58.817Z,15.80
2019-04-27T14:50:27.068Z,15.69
2019-04-27T14:52:55.357Z,15.53
2019-04-27T14:55:23.578Z,15.43
2019-04-27T14:57:51.817Z,15.36
2019-04-27T15:00:20.791Z,15.37
2019-04-27T15:02:49.129Z,15.40
2019-04-27T15:05:17.731Z,15.37
2019-04-27T15:07:45.978Z,15.45
2019-04-27T15:10:16.186Z,15.57
2019-04-27T15:12:44.188Z,15.70
2019-04-27T15:15:12.432Z,15.78
2019-04-27T15:17:41.019Z,15.79
2019-04-27T15:20:28.710Z,15.74
2019-04-27T15:22:58.398Z,15.63
2019-04-27T15:25:27.286Z,15.54
2019-04-27T15:28:01.287Z,15.46
2019-04-27T15:30:47.626Z,15.45
2019-04-27T15:33:33.345Z,15.43
2019-04-27T15:36:07.665Z,15.45
2019-04-27T15:38:38.952Z,15.44
2019-04-27T15:41:11.696Z,15.38
2019-04-27T15:43:41.583Z,15.47
2019-04-27T15:46:10.105Z,15.51
2019-04-27T15:48:38.593Z,15.54
2019-04-27T15:51:15.645Z,15.55
2019-04-27T15:53:39.427Z,15.60
2019-04-27T15:56:08.771Z,15.50
2019-04-27T15:58:38.270Z,15.40
2019-04-27T16:01:09.942Z,15.38
2019-04-27T16:03:38.959Z,15.34
2019-04-27T16:06:11.701Z,15.25
2019-04-27T16:08:44.788Z,15.11
2019-04-27T16:11:11.708Z,15.00
2019-04-27T16:13:38.362Z,14.99
2019-04-27T16:16:08.501Z,14.96
2019-04-27T16:18:38.874Z,14.88
2019-04-27T16:21:10.203Z,14.86
2019-04-27T16:23:42.686Z,14.86
2019-04-27T16:26:11.159Z,14.85
2019-04-27T16:28:37.646Z,14.87
2019-04-27T16:31:05.848Z,14.89
2019-04-27T16:33:34.495Z,14.92
2019-04-27T16:36:06.988Z,14.91
2019-04-27T16:38:38.796Z,14.91
2019-04-27T16:41:08.191Z,14.93
2019-04-27T16:43:38.431Z,14.97
2019-04-27T16:46:06.427Z,14.97
2019-04-27T16:48:36.138Z,14.94
2019-04-27T16:51:04.544Z,14.88
2019-04-27T16:53:38.182Z,14.75
2019-04-27T16:56:14.722Z,14.62
2019-04-27T16:58:39.719Z,14.55
2019-04-27T17:01:10.864Z,14.47
2019-04-27T17:03:41.384Z,14.31
2019-04-27T17:06:09.389Z,14.07
2019-04-27T17:08:39.384Z,13.84
2019-04-27T17:11:11.410Z,13.58
2019-04-27T17:13:39.384Z,13.44
2019-04-27T17:16:24.670Z,13.36
2019-04-27T17:18:57.756Z,13.30
2019-04-27T17:21:25.865Z,13.24
2019-04-27T17:23:56.956Z,13.14
2019-04-27T17:26:24.319Z,13.08
2019-04-27T17:28:59.765Z,13.03
2019-04-27T17:31:29.724Z,12.97
2019-04-27T17:34:00.553Z,12.90
2019-04-27T17:36:29.282Z,12.87
2019-04-27T17:38:58.313Z,12.82
2019-04-27T17:41:28.305Z,12.80
2019-04-27T17:43:58.960Z,12.77
2019-04-27T17:46:28.220Z,12.78
2019-04-27T17:49:00.010Z,12.81
2019-04-27T17:51:28.593Z,12.83
2019-04-27T17:53:58.641Z,12.82
2019-04-27T17:56:35.345Z,12.83
2019-04-27T17:58:58.635Z,12.86
2019-04-27T18:01:30.145Z,12.97
2019-04-27T18:04:00.289Z,13.08
2019-04-27T18:06:29.478Z,13.07
2019-04-27T18:09:01.547Z,13.03
2019-04-27T18:11:28.771Z,12.95
2019-04-27T18:14:00.346Z,12.84
2019-04-27T18:16:30.334Z,12.69
2019-04-27T18:19:07.970Z,12.61
2019-04-27T18:21:30.506Z,12.54
2019-04-27T18:24:09.422Z,12.42
2019-04-27T18:26:56.365Z,12.31
2019-04-27T18:29:22.790Z,12.15
2019-04-27T18:31:54.543Z,12.04
2019-04-27T18:34:21.521Z,11.95
2019-04-27T18:36:49.743Z,11.89
2019-04-27T18:39:18.351Z,11.85
2019-04-27T18:41:50.595Z,11.78
2019-04-27T18:44:19.006Z,11.71
2019-04-27T18:46:48.790Z,11.65
2019-04-27T18:49:30.232Z,11.61
2019-04-27T18:52:06.551Z,11.61
2019-04-27T18:54:38.292Z,11.61
2019-04-27T18:57:05.593Z,11.58
2019-04-27T18:59:34.147Z,11.57
2019-04-27T19:02:02.631Z,11.57
2019-04-27T19:04:30.832Z,11.52
2019-04-27T19:07:00.101Z,11.49
2019-04-27T19:09:28.683Z,11.48
2019-04-27T19:11:56.889Z,11.45
2019-04-27T19:14:25.437Z,11.42
2019-04-27T19:16:53.643Z,11.35
2019-04-27T19:19:22.212Z,11.30
2019-04-27T19:21:50.676Z,11.28
2019-04-27T19:24:19.330Z,11.25
2019-04-27T19:27:15.268Z,11.20
2019-04-27T19:29:39.629Z,11.16
2019-04-27T19:32:08.156Z,11.16
2019-04-27T19:34:36.746Z,11.18
2019-04-27T19:37:05.322Z,11.18
2019-04-27T19:39:33.532Z,11.14
2019-04-27T19:42:03.857Z,11.14
2019-04-27T19:44:31.705Z,11.11
2019-04-27T19:47:00.363Z,11.12
2019-04-27T19:49:31.271Z,11.11
2019-04-27T19:51:58.896Z,11.09
2019-04-27T19:54:28.293Z,11.05
2019-04-27T19:56:57.155Z,10.98
2019-04-27T19:59:28.047Z,10.91
2019-04-27T20:01:58.412Z,10.83
2019-04-27T20:04:31.296Z,10.80
2019-04-27T20:06:59.603Z,10.80
2019-04-27T20:09:49.799Z,10.80
2019-04-27T20:12:18.061Z,10.80
2019-04-27T20:14:55.380Z,10.74
2019-04-27T20:17:24.756Z,10.67
2019-04-27T20:19:52.966Z,10.66
2019-04-27T20:22:22.780Z,10.65
2019-04-27T20:24:51.387Z,10.59
2019-04-27T20:27:21.181Z,10.55
2019-04-27T20:29:49.526Z,10.51
2019-04-27T20:32:17.749Z,10.48
2019-04-27T20:34:46.290Z,10.45
2019-04-27T20:37:14.501Z,10.43
2019-04-27T20:39:43.034Z,10.36
2019-04-27T20:42:12.616Z,10.33
2019-04-27T20:44:41.312Z,10.29
2019-04-27T20:47:10.193Z,10.26
2019-04-27T20:49:38.397Z,10.25
2019-04-27T20:52:08.297Z,10.27
2019-04-27T20:54:36.763Z,10.26
2019-04-27T20:57:05.851Z,10.25
2019-04-27T20:59:34.150Z,10.24
2019-04-27T21:02:22.356Z,9.62
2019-04-27T21:04:51.879Z,10.21
2019-04-27T21:07:21.730Z,10.19
2019-04-27T21:09:50.302Z,10.17
2019-04-27T21:12:18.882Z,10.14
2019-04-27T21:14:47.478Z,10.17
2019-04-27T21:17:16.061Z,10.20
2019-04-27T21:19:44.282Z,10.23
2019-04-27T21:22:12.490Z,10.25
2019-04-27T21:24:41.359Z,10.25
2019-04-27T21:27:12.864Z,10.24
2019-04-27T21:29:39.837Z,10.20
2019-04-27T21:32:08.369Z,10.16
2019-04-27T21:34:36.554Z,10.15
2019-04-27T21:37:05.014Z,10.14
2019-04-27T21:39:33.224Z,10.16
2019-04-27T21:42:01.461Z,10.17
2019-04-27T21:44:29.664Z,10.18
2019-04-27T21:46:57.886Z,10.15
2019-04-27T21:49:26.132Z,10.16
2019-04-27T21:52:14.535Z,10.19
2019-04-27T21:54:48.500Z,10.20
2019-04-27T21:57:16.870Z,10.22
2019-04-27T21:59:45.140Z,10.25
2019-04-27T22:02:14.623Z,10.23
2019-04-27T22:04:42.815Z,10.22
2019-04-27T22:07:11.527Z,10.23
2019-04-27T22:09:43.092Z,10.25
2019-04-27T22:12:11.215Z,10.26
2019-04-27T22:14:39.984Z,10.25
2019-04-27T22:17:08.460Z,10.23
2019-04-27T22:19:36.672Z,10.18
2019-04-27T22:22:06.523Z,10.16
2019-04-27T22:24:36.359Z,10.16
2019-04-27T22:27:04.560Z,10.16
2019-04-27T22:29:33.151Z,10.17
2019-04-27T22:32:01.701Z,10.16
2019-04-27T22:34:31.200Z,10.17
2019-04-27T22:37:02.314Z,10.15
2019-04-27T22:39:31.563Z,10.15
2019-04-27T22:42:01.813Z,10.14
2019-04-27T22:44:31.818Z,10.14
2019-04-27T22:46:59.961Z,10.15
2019-04-27T22:49:28.182Z,10.18
2019-04-27T22:51:56.734Z,10.18
2019-04-27T22:54:25.210Z,10.19
2019-04-27T22:56:55.321Z,10.20
2019-04-27T22:59:34.160Z,10.21
2019-04-27T23:02:04.005Z,10.20
2019-04-27T23:04:43.103Z,10.19
2019-04-27T23:07:11.306Z,10.17
2019-04-27T23:09:40.717Z,10.14
2019-04-27T23:12:09.794Z,10.13
2019-04-27T23:14:38.006Z,10.11
2019-04-27T23:17:24.276Z,10.07
2019-04-27T23:19:52.680Z,10.04
2019-04-27T23:22:21.410Z,10.00
2019-04-27T23:24:51.717Z,9.98
2019-04-27T23:27:21.517Z,9.95
2019-04-27T23:29:51.486Z,9.94
2019-04-27T23:32:33.355Z,9.96
2019-04-27T23:35:01.558Z,9.95
2019-04-27T23:37:29.782Z,9.96
2019-04-27T23:39:58.291Z,9.97
2019-04-27T23:42:26.538Z,9.98
2019-04-27T23:44:54.755Z,9.97
2019-04-27T23:47:22.985Z,9.97
2019-04-27T23:49:51.246Z,8.77
2019-04-27T23:52:37.461Z,9.92
2019-04-27T23:55:06.044Z,9.91
2019-04-27T23:57:34.271Z,9.91
